sensor_id;sensor_type;location;lat;lon;timestamp;temperature;humidity
15765;DHT22;7983;50.744;7.086;2023-11-21T00:00:07;11.10;99.90
15765;DHT22;7983;50.744;7.086;2023-11-21T00:02:40;11.10;99.90
15765;DHT22;7983;50.744;7.086;2023-11-21T00:05:10;11.10;99.90
15765;DHT22;7983;50.744;7.086;2023-11-21T00:07:36;11.10;99.90
15765;DHT22;7983;50.744;7.086;2023-11-21T00:10:05;11.20;99.90
15765;DHT22;7983;50.744;7.086;2023-11-21T00:12:32;11.10;99.90
15765;DHT22;7983;50.744;7.086;2023-11-21T00:15:00;11.10;99.90
15765;DHT22;7983;50.744;7.086;2023-11-21T00:17:27;11.10;99.90
15765;DHT22;7983;50.744;7.086;2023-11-21T00:19:55;11.10;99.90
15765;DHT22;7983;50.744;7.086;2023-11-21T00:22:23;11.10;99.90
15765;DHT22;7983;50.744;7.086;2023-11-21T00:24:49;11.10;99.90
15765;DHT22;7983;50.744;7.086;2023-11-21T00:27:17;11.10;99.90
15765;DHT22;7983;50.744;7.086;2023-11-21T00:29:42;11.20;99.90
15765;DHT22;7983;50.744;7.086;2023-11-21T00:32:08;11.10;99.90
15765;DHT22;7983;50.744;7.086;2023-11-21T00:34:36;11.10;99.90
15765;DHT22;7983;50.744;7.086;2023-11-21T00:37:01;11.10;99.90
15765;DHT22;7983;50.744;7.086;2023-11-21T00:39:28;11.00;99.90
15765;DHT22;7983;50.744;7.086;2023-11-21T00:41:54;11.00;99.90
15765;DHT22;7983;50.744;7.086;2023-11-21T00:44:19;11.10;99.90
15765;DHT22;7983;50.744;7.086;2023-11-21T00:46:45;11.00;99.90
15765;DHT22;7983;50.744;7.086;2023-11-21T00:49:10;11.00;99.90
15765;DHT22;7983;50.744;7.086;2023-11-21T00:51:36;11.00;99.90
15765;DHT22;7983;50.744;7.086;2023-11-21T01:04:18;10.80;99.90
15765;DHT22;7983;50.744;7.086;2023-11-21T01:06:47;10.70;99.90
15765;DHT22;7983;50.744;7.086;2023-11-21T01:09:15;10.70;99.90
15765;DHT22;7983;50.744;7.086;2023-11-21T01:11:43;10.70;99.90
15765;DHT22;7983;50.744;7.086;2023-11-21T01:14:09;10.70;99.90
15765;DHT22;7983;50.744;7.086;2023-11-21T01:16:43;10.70;99.90
15765;DHT22;7983;50.744;7.086;2023-11-21T01:19:12;10.80;99.90
15765;DHT22;7983;50.744;7.086;2023-11-21T01:21:41;10.70;99.90
15765;DHT22;7983;50.744;7.086;2023-11-21T01:24:07;10.70;99.90
15765;DHT22;7983;50.744;7.086;2023-11-21T01:26:53;10.70;99.90
15765;DHT22;7983;50.744;7.086;2023-11-21T01:30:22;10.80;99.90
15765;DHT22;7983;50.744;7.086;2023-11-21T01:32:50;10.70;99.90
15765;DHT22;7983;50.744;7.086;2023-11-21T01:35:19;10.70;99.90
15765;DHT22;7983;50.744;7.086;2023-11-21T01:37:45;10.60;99.90
15765;DHT22;7983;50.744;7.086;2023-11-21T01:40:13;10.60;99.90
15765;DHT22;7983;50.744;7.086;2023-11-21T01:42:39;10.60;99.90
15765;DHT22;7983;50.744;7.086;2023-11-21T01:45:09;10.70;99.90
15765;DHT22;7983;50.744;7.086;2023-11-21T01:47:50;10.70;99.90
15765;DHT22;7983;50.744;7.086;2023-11-21T01:51:18;10.70;99.90
15765;DHT22;7983;50.744;7.086;2023-11-21T01:57:01;10.70;99.90
15765;DHT22;7983;50.744;7.086;2023-11-21T01:59:34;10.70;99.90
15765;DHT22;7983;50.744;7.086;2023-11-21T02:02:08;10.70;99.90
15765;DHT22;7983;50.744;7.086;2023-11-21T02:04:35;10.70;99.90
15765;DHT22;7983;50.744;7.086;2023-11-21T02:07:07;10.70;99.90
15765;DHT22;7983;50.744;7.086;2023-11-21T02:09:33;10.70;99.90
15765;DHT22;7983;50.744;7.086;2023-11-21T02:12:00;10.60;99.90
15765;DHT22;7983;50.744;7.086;2023-11-21T02:14:28;10.70;99.90
15765;DHT22;7983;50.744;7.086;2023-11-21T02:16:59;10.70;99.90
15765;DHT22;7983;50.744;7.086;2023-11-21T02:19:26;10.70;99.90
15765;DHT22;7983;50.744;7.086;2023-11-21T02:21:59;10.60;99.90
15765;DHT22;7983;50.744;7.086;2023-11-21T02:24:34;10.70;99.90
15765;DHT22;7983;50.744;7.086;2023-11-21T02:27:02;10.70;99.90
15765;DHT22;7983;50.744;7.086;2023-11-21T02:29:33;10.80;99.90
15765;DHT22;7983;50.744;7.086;2023-11-21T02:31:58;10.70;99.90
15765;DHT22;7983;50.744;7.086;2023-11-21T02:34:25;10.70;99.90
15765;DHT22;7983;50.744;7.086;2023-11-21T02:36:50;10.70;99.90
15765;DHT22;7983;50.744;7.086;2023-11-21T02:39:17;10.70;99.90
15765;DHT22;7983;50.744;7.086;2023-11-21T02:41:45;10.70;99.90
15765;DHT22;7983;50.744;7.086;2023-11-21T02:44:11;10.70;99.90
15765;DHT22;7983;50.744;7.086;2023-11-21T02:46:37;10.70;99.90
15765;DHT22;7983;50.744;7.086;2023-11-21T02:49:07;10.70;99.90
15765;DHT22;7983;50.744;7.086;2023-11-21T02:51:33;10.70;99.90
15765;DHT22;7983;50.744;7.086;2023-11-21T02:54:01;10.70;99.90
15765;DHT22;7983;50.744;7.086;2023-11-21T02:56:29;10.70;99.90
15765;DHT22;7983;50.744;7.086;2023-11-21T02:58:59;10.70;99.90
15765;DHT22;7983;50.744;7.086;2023-11-21T03:01:28;10.70;99.90
15765;DHT22;7983;50.744;7.086;2023-11-21T03:03:53;10.60;99.90
15765;DHT22;7983;50.744;7.086;2023-11-21T03:06:21;10.60;99.90
15765;DHT22;7983;50.744;7.086;2023-11-21T03:08:47;10.60;99.90
15765;DHT22;7983;50.744;7.086;2023-11-21T03:11:13;10.60;99.90
15765;DHT22;7983;50.744;7.086;2023-11-21T03:13:42;10.60;99.90
15765;DHT22;7983;50.744;7.086;2023-11-21T03:16:09;10.50;99.90
15765;DHT22;7983;50.744;7.086;2023-11-21T03:18:34;10.50;99.90
15765;DHT22;7983;50.744;7.086;2023-11-21T03:21:03;10.50;99.90
15765;DHT22;7983;50.744;7.086;2023-11-21T03:23:28;10.50;99.90
15765;DHT22;7983;50.744;7.086;2023-11-21T03:25:54;10.50;99.90
15765;DHT22;7983;50.744;7.086;2023-11-21T03:28:20;10.50;99.90
15765;DHT22;7983;50.744;7.086;2023-11-21T03:30:45;10.50;99.90
15765;DHT22;7983;50.744;7.086;2023-11-21T03:33:11;10.50;99.90
15765;DHT22;7983;50.744;7.086;2023-11-21T03:35:37;10.50;99.90
15765;DHT22;7983;50.744;7.086;2023-11-21T03:38:07;10.50;99.90
15765;DHT22;7983;50.744;7.086;2023-11-21T03:40:33;10.50;99.90
15765;DHT22;7983;50.744;7.086;2023-11-21T03:42:58;10.40;99.90
15765;DHT22;7983;50.744;7.086;2023-11-21T03:45:24;10.40;99.90
15765;DHT22;7983;50.744;7.086;2023-11-21T03:47:50;10.40;99.90
15765;DHT22;7983;50.744;7.086;2023-11-21T03:50:22;10.40;99.90
15765;DHT22;7983;50.744;7.086;2023-11-21T03:52:48;10.40;99.90
15765;DHT22;7983;50.744;7.086;2023-11-21T03:55:13;10.40;99.90
15765;DHT22;7983;50.744;7.086;2023-11-21T03:57:40;10.40;99.90
15765;DHT22;7983;50.744;7.086;2023-11-21T04:00:06;10.40;99.90
15765;DHT22;7983;50.744;7.086;2023-11-21T04:02:34;10.40;99.90
15765;DHT22;7983;50.744;7.086;2023-11-21T04:05:00;10.40;99.90
15765;DHT22;7983;50.744;7.086;2023-11-21T04:07:26;10.40;99.90
15765;DHT22;7983;50.744;7.086;2023-11-21T04:09:52;10.40;99.90
15765;DHT22;7983;50.744;7.086;2023-11-21T04:12:19;10.40;99.90
15765;DHT22;7983;50.744;7.086;2023-11-21T04:14:47;10.40;99.90
15765;DHT22;7983;50.744;7.086;2023-11-21T04:17:13;10.30;99.90
15765;DHT22;7983;50.744;7.086;2023-11-21T04:19:38;10.40;99.90
15765;DHT22;7983;50.744;7.086;2023-11-21T04:22:06;10.40;99.90
15765;DHT22;7983;50.744;7.086;2023-11-21T04:24:32;10.40;99.90
15765;DHT22;7983;50.744;7.086;2023-11-21T04:26:57;10.40;99.90
15765;DHT22;7983;50.744;7.086;2023-11-21T04:29:23;10.30;99.90
15765;DHT22;7983;50.744;7.086;2023-11-21T04:31:48;10.30;99.90
15765;DHT22;7983;50.744;7.086;2023-11-21T04:34:15;10.40;99.90
15765;DHT22;7983;50.744;7.086;2023-11-21T04:36:42;10.40;99.90
15765;DHT22;7983;50.744;7.086;2023-11-21T04:39:10;10.30;99.90
15765;DHT22;7983;50.744;7.086;2023-11-21T04:41:37;10.40;99.90
15765;DHT22;7983;50.744;7.086;2023-11-21T04:44:05;10.40;99.90
15765;DHT22;7983;50.744;7.086;2023-11-21T04:46:31;10.40;99.90
15765;DHT22;7983;50.744;7.086;2023-11-21T04:49:01;10.30;99.90
15765;DHT22;7983;50.744;7.086;2023-11-21T04:51:29;10.40;99.90
15765;DHT22;7983;50.744;7.086;2023-11-21T04:53:57;10.40;99.90
15765;DHT22;7983;50.744;7.086;2023-11-21T04:56:22;10.40;99.90
15765;DHT22;7983;50.744;7.086;2023-11-21T04:58:48;10.40;99.90
15765;DHT22;7983;50.744;7.086;2023-11-21T05:01:14;10.40;99.90
15765;DHT22;7983;50.744;7.086;2023-11-21T05:03:39;10.50;99.90
15765;DHT22;7983;50.744;7.086;2023-11-21T05:06:09;10.50;99.90
15765;DHT22;7983;50.744;7.086;2023-11-21T05:08:35;10.50;99.90
15765;DHT22;7983;50.744;7.086;2023-11-21T05:11:03;10.60;99.90
15765;DHT22;7983;50.744;7.086;2023-11-21T05:13:28;10.60;99.90
15765;DHT22;7983;50.744;7.086;2023-11-21T05:15:55;10.60;99.90
15765;DHT22;7983;50.744;7.086;2023-11-21T05:18:23;10.60;99.90
15765;DHT22;7983;50.744;7.086;2023-11-21T05:20:52;10.60;99.90
15765;DHT22;7983;50.744;7.086;2023-11-21T05:23:19;10.60;99.90
15765;DHT22;7983;50.744;7.086;2023-11-21T05:25:49;10.70;99.90
15765;DHT22;7983;50.744;7.086;2023-11-21T05:28:17;10.70;99.90
15765;DHT22;7983;50.744;7.086;2023-11-21T05:30:42;10.60;99.90
15765;DHT22;7983;50.744;7.086;2023-11-21T05:33:11;10.70;99.90
15765;DHT22;7983;50.744;7.086;2023-11-21T05:35:37;10.70;99.90
15765;DHT22;7983;50.744;7.086;2023-11-21T05:38:02;10.70;99.90
15765;DHT22;7983;50.744;7.086;2023-11-21T05:40:28;10.60;99.90
15765;DHT22;7983;50.744;7.086;2023-11-21T05:42:55;10.60;99.90
15765;DHT22;7983;50.744;7.086;2023-11-21T05:45:23;10.60;99.90
15765;DHT22;7983;50.744;7.086;2023-11-21T05:47:49;10.60;99.90
15765;DHT22;7983;50.744;7.086;2023-11-21T05:50:16;10.60;99.90
15765;DHT22;7983;50.744;7.086;2023-11-21T05:52:44;10.60;99.90
15765;DHT22;7983;50.744;7.086;2023-11-21T05:55:10;10.50;99.90
15765;DHT22;7983;50.744;7.086;2023-11-21T05:57:37;10.50;99.90
15765;DHT22;7983;50.744;7.086;2023-11-21T06:00:10;10.50;99.90
15765;DHT22;7983;50.744;7.086;2023-11-21T06:03:02;10.40;99.90
15765;DHT22;7983;50.744;7.086;2023-11-21T06:05:32;10.40;99.90
15765;DHT22;7983;50.744;7.086;2023-11-21T06:07:58;10.40;99.90
15765;DHT22;7983;50.744;7.086;2023-11-21T06:10:27;10.40;99.90
15765;DHT22;7983;50.744;7.086;2023-11-21T06:12:56;10.40;99.90
15765;DHT22;7983;50.744;7.086;2023-11-21T06:15:23;10.40;99.90
15765;DHT22;7983;50.744;7.086;2023-11-21T06:17:51;10.40;99.90
15765;DHT22;7983;50.744;7.086;2023-11-21T06:20:21;10.40;99.90
15765;DHT22;7983;50.744;7.086;2023-11-21T06:22:49;10.40;99.90
15765;DHT22;7983;50.744;7.086;2023-11-21T06:25:15;10.40;99.90
15765;DHT22;7983;50.744;7.086;2023-11-21T06:27:45;10.40;99.90
15765;DHT22;7983;50.744;7.086;2023-11-21T06:30:12;10.40;99.90
15765;DHT22;7983;50.744;7.086;2023-11-21T06:32:41;10.40;99.90
15765;DHT22;7983;50.744;7.086;2023-11-21T06:35:13;10.40;99.90
15765;DHT22;7983;50.744;7.086;2023-11-21T06:37:41;10.40;99.90
15765;DHT22;7983;50.744;7.086;2023-11-21T06:40:12;10.40;99.90
15765;DHT22;7983;50.744;7.086;2023-11-21T06:42:42;10.40;99.90
15765;DHT22;7983;50.744;7.086;2023-11-21T06:45:12;10.40;99.90
15765;DHT22;7983;50.744;7.086;2023-11-21T06:47:41;10.40;99.90
15765;DHT22;7983;50.744;7.086;2023-11-21T06:50:07;10.40;99.90
15765;DHT22;7983;50.744;7.086;2023-11-21T06:52:32;10.40;99.90
15765;DHT22;7983;50.744;7.086;2023-11-21T06:54:58;10.40;99.90
15765;DHT22;7983;50.744;7.086;2023-11-21T06:57:26;10.40;99.90
15765;DHT22;7983;50.744;7.086;2023-11-21T06:59:52;10.40;99.90
15765;DHT22;7983;50.744;7.086;2023-11-21T07:02:18;10.30;99.90
15765;DHT22;7983;50.744;7.086;2023-11-21T07:04:45;10.30;99.90
15765;DHT22;7983;50.744;7.086;2023-11-21T07:07:12;10.40;99.90
15765;DHT22;7983;50.744;7.086;2023-11-21T07:09:40;10.40;99.90
15765;DHT22;7983;50.744;7.086;2023-11-21T07:12:06;10.40;99.90
15765;DHT22;7983;50.744;7.086;2023-11-21T07:14:35;10.40;99.90
15765;DHT22;7983;50.744;7.086;2023-11-21T07:17:01;10.40;99.90
15765;DHT22;7983;50.744;7.086;2023-11-21T07:19:26;10.40;99.90
15765;DHT22;7983;50.744;7.086;2023-11-21T07:21:52;10.50;99.90
15765;DHT22;7983;50.744;7.086;2023-11-21T07:24:18;10.50;99.90
15765;DHT22;7983;50.744;7.086;2023-11-21T07:26:44;10.50;99.90
15765;DHT22;7983;50.744;7.086;2023-11-21T07:29:13;10.50;99.90
15765;DHT22;7983;50.744;7.086;2023-11-21T07:31:41;10.60;99.90
15765;DHT22;7983;50.744;7.086;2023-11-21T07:34:07;10.60;99.90
15765;DHT22;7983;50.744;7.086;2023-11-21T07:36:36;10.60;99.90
15765;DHT22;7983;50.744;7.086;2023-11-21T07:39:06;10.60;99.90
15765;DHT22;7983;50.744;7.086;2023-11-21T07:41:32;10.60;99.90
15765;DHT22;7983;50.744;7.086;2023-11-21T07:43:57;10.60;99.90
15765;DHT22;7983;50.744;7.086;2023-11-21T07:46:28;10.60;99.90
15765;DHT22;7983;50.744;7.086;2023-11-21T07:48:54;10.70;99.90
15765;DHT22;7983;50.744;7.086;2023-11-21T07:51:20;10.70;99.90
15765;DHT22;7983;50.744;7.086;2023-11-21T07:53:48;10.70;99.90
15765;DHT22;7983;50.744;7.086;2023-11-21T07:56:16;10.70;99.90
15765;DHT22;7983;50.744;7.086;2023-11-21T07:58:41;10.70;99.90
15765;DHT22;7983;50.744;7.086;2023-11-21T08:01:19;10.70;99.90
15765;DHT22;7983;50.744;7.086;2023-11-21T08:03:44;10.70;99.90
15765;DHT22;7983;50.744;7.086;2023-11-21T08:06:10;10.70;99.90
15765;DHT22;7983;50.744;7.086;2023-11-21T08:08:35;10.70;99.90
15765;DHT22;7983;50.744;7.086;2023-11-21T08:11:06;10.80;99.90
15765;DHT22;7983;50.744;7.086;2023-11-21T08:13:35;10.70;99.90
15765;DHT22;7983;50.744;7.086;2023-11-21T08:16:07;10.70;99.90
15765;DHT22;7983;50.744;7.086;2023-11-21T08:18:39;10.70;99.90
15765;DHT22;7983;50.744;7.086;2023-11-21T08:21:06;10.70;99.90
15765;DHT22;7983;50.744;7.086;2023-11-21T08:23:33;10.70;99.90
15765;DHT22;7983;50.744;7.086;2023-11-21T08:25:59;10.70;99.90
15765;DHT22;7983;50.744;7.086;2023-11-21T08:28:28;10.80;99.90
15765;DHT22;7983;50.744;7.086;2023-11-21T08:30:54;10.70;99.90
15765;DHT22;7983;50.744;7.086;2023-11-21T08:33:24;10.70;99.90
15765;DHT22;7983;50.744;7.086;2023-11-21T08:35:50;10.80;99.90
15765;DHT22;7983;50.744;7.086;2023-11-21T08:38:15;10.80;99.90
15765;DHT22;7983;50.744;7.086;2023-11-21T08:40:41;10.80;99.90
15765;DHT22;7983;50.744;7.086;2023-11-21T08:43:07;10.90;99.90
15765;DHT22;7983;50.744;7.086;2023-11-21T08:45:34;10.90;99.90
15765;DHT22;7983;50.744;7.086;2023-11-21T08:48:02;10.90;99.90
15765;DHT22;7983;50.744;7.086;2023-11-21T08:50:28;11.00;99.90
15765;DHT22;7983;50.744;7.086;2023-11-21T08:52:54;11.00;99.90
15765;DHT22;7983;50.744;7.086;2023-11-21T08:55:20;11.10;99.90
15765;DHT22;7983;50.744;7.086;2023-11-21T08:57:47;11.10;99.90
15765;DHT22;7983;50.744;7.086;2023-11-21T09:00:13;11.10;99.90
15765;DHT22;7983;50.744;7.086;2023-11-21T09:02:43;11.20;99.90
15765;DHT22;7983;50.744;7.086;2023-11-21T09:05:15;11.20;99.90
15765;DHT22;7983;50.744;7.086;2023-11-21T09:07:41;11.20;99.90
15765;DHT22;7983;50.744;7.086;2023-11-21T09:10:10;11.20;99.90
15765;DHT22;7983;50.744;7.086;2023-11-21T09:12:36;11.20;99.90
15765;DHT22;7983;50.744;7.086;2023-11-21T09:15:06;11.20;99.90
15765;DHT22;7983;50.744;7.086;2023-11-21T09:17:33;11.10;99.90
15765;DHT22;7983;50.744;7.086;2023-11-21T09:20:03;11.10;99.90
15765;DHT22;7983;50.744;7.086;2023-11-21T09:22:32;11.10;99.90
15765;DHT22;7983;50.744;7.086;2023-11-21T09:24:58;11.10;99.90
15765;DHT22;7983;50.744;7.086;2023-11-21T09:27:23;11.10;99.90
15765;DHT22;7983;50.744;7.086;2023-11-21T09:29:51;11.10;99.90
15765;DHT22;7983;50.744;7.086;2023-11-21T09:32:16;11.10;99.90
15765;DHT22;7983;50.744;7.086;2023-11-21T09:34:44;11.10;99.90
15765;DHT22;7983;50.744;7.086;2023-11-21T09:37:12;11.10;99.90
15765;DHT22;7983;50.744;7.086;2023-11-21T09:39:40;11.10;99.90
15765;DHT22;7983;50.744;7.086;2023-11-21T09:42:20;11.20;99.90
15765;DHT22;7983;50.744;7.086;2023-11-21T09:44:58;11.20;99.90
15765;DHT22;7983;50.744;7.086;2023-11-21T09:47:26;11.20;99.90
15765;DHT22;7983;50.744;7.086;2023-11-21T09:49:54;11.20;99.90
15765;DHT22;7983;50.744;7.086;2023-11-21T09:52:28;11.20;99.90
15765;DHT22;7983;50.744;7.086;2023-11-21T09:54:54;11.30;99.90
15765;DHT22;7983;50.744;7.086;2023-11-21T09:57:23;11.40;99.90
15765;DHT22;7983;50.744;7.086;2023-11-21T09:59:54;11.40;99.90
15765;DHT22;7983;50.744;7.086;2023-11-21T10:02:28;11.40;99.90
15765;DHT22;7983;50.744;7.086;2023-11-21T10:04:56;11.50;99.90
15765;DHT22;7983;50.744;7.086;2023-11-21T10:07:22;11.60;99.90
15765;DHT22;7983;50.744;7.086;2023-11-21T10:09:51;11.50;99.90
15765;DHT22;7983;50.744;7.086;2023-11-21T10:12:17;11.60;99.90
15765;DHT22;7983;50.744;7.086;2023-11-21T10:14:42;11.60;99.90
15765;DHT22;7983;50.744;7.086;2023-11-21T10:17:10;11.70;99.90
15765;DHT22;7983;50.744;7.086;2023-11-21T10:19:40;11.70;99.90
15765;DHT22;7983;50.744;7.086;2023-11-21T10:22:09;11.70;99.90
15765;DHT22;7983;50.744;7.086;2023-11-21T10:24:35;11.70;99.90
15765;DHT22;7983;50.744;7.086;2023-11-21T10:27:02;11.70;99.90
15765;DHT22;7983;50.744;7.086;2023-11-21T10:29:31;11.80;99.90
15765;DHT22;7983;50.744;7.086;2023-11-21T10:32:02;11.80;99.90
15765;DHT22;7983;50.744;7.086;2023-11-21T10:34:30;11.80;99.90
15765;DHT22;7983;50.744;7.086;2023-11-21T10:36:56;11.90;99.90
15765;DHT22;7983;50.744;7.086;2023-11-21T10:39:24;11.90;99.90
15765;DHT22;7983;50.744;7.086;2023-11-21T10:41:54;11.90;99.90
15765;DHT22;7983;50.744;7.086;2023-11-21T10:44:20;12.00;99.90
15765;DHT22;7983;50.744;7.086;2023-11-21T10:46:53;12.00;99.90
15765;DHT22;7983;50.744;7.086;2023-11-21T10:49:28;12.00;99.90
15765;DHT22;7983;50.744;7.086;2023-11-21T10:51:56;12.00;99.90
15765;DHT22;7983;50.744;7.086;2023-11-21T10:54:25;12.00;99.90
15765;DHT22;7983;50.744;7.086;2023-11-21T10:56:57;12.00;99.90
15765;DHT22;7983;50.744;7.086;2023-11-21T10:59:28;12.00;99.90
15765;DHT22;7983;50.744;7.086;2023-11-21T11:01:58;12.10;99.90
15765;DHT22;7983;50.744;7.086;2023-11-21T11:04:27;12.10;99.90
15765;DHT22;7983;50.744;7.086;2023-11-21T11:07:02;12.00;99.90
15765;DHT22;7983;50.744;7.086;2023-11-21T11:09:33;12.00;99.90
15765;DHT22;7983;50.744;7.086;2023-11-21T11:12:02;12.00;99.90
15765;DHT22;7983;50.744;7.086;2023-11-21T11:14:29;12.00;99.90
15765;DHT22;7983;50.744;7.086;2023-11-21T11:16:55;12.00;99.90
15765;DHT22;7983;50.744;7.086;2023-11-21T11:19:25;12.00;99.90
15765;DHT22;7983;50.744;7.086;2023-11-21T11:27:37;12.00;99.90
15765;DHT22;7983;50.744;7.086;2023-11-21T11:33:10;12.00;99.90
15765;DHT22;7983;50.744;7.086;2023-11-21T11:38:21;12.00;99.90
15765;DHT22;7983;50.744;7.086;2023-11-21T11:40:53;12.00;99.90
15765;DHT22;7983;50.744;7.086;2023-11-21T11:43:28;12.00;99.90
15765;DHT22;7983;50.744;7.086;2023-11-21T11:45:57;12.00;99.90
15765;DHT22;7983;50.744;7.086;2023-11-21T11:48:29;12.00;99.90
15765;DHT22;7983;50.744;7.086;2023-11-21T11:53:36;12.00;99.90
15765;DHT22;7983;50.744;7.086;2023-11-21T11:58:55;12.00;99.90
15765;DHT22;7983;50.744;7.086;2023-11-21T12:01:21;12.00;99.90
15765;DHT22;7983;50.744;7.086;2023-11-21T12:06:42;12.00;99.90
15765;DHT22;7983;50.744;7.086;2023-11-21T12:09:26;12.10;99.90
15765;DHT22;7983;50.744;7.086;2023-11-21T12:11:53;12.10;99.90
15765;DHT22;7983;50.744;7.086;2023-11-21T12:14:20;12.10;99.90
15765;DHT22;7983;50.744;7.086;2023-11-21T12:16:47;12.20;99.90
15765;DHT22;7983;50.744;7.086;2023-11-21T12:19:15;12.20;99.90
15765;DHT22;7983;50.744;7.086;2023-11-21T12:21:46;12.20;99.90
15765;DHT22;7983;50.744;7.086;2023-11-21T12:24:11;12.30;99.90
15765;DHT22;7983;50.744;7.086;2023-11-21T12:26:40;12.20;99.90
15765;DHT22;7983;50.744;7.086;2023-11-21T12:29:05;12.30;99.90
15765;DHT22;7983;50.744;7.086;2023-11-21T12:31:33;12.30;99.90
15765;DHT22;7983;50.744;7.086;2023-11-21T12:34:00;12.30;99.90
15765;DHT22;7983;50.744;7.086;2023-11-21T12:36:26;12.30;99.90
15765;DHT22;7983;50.744;7.086;2023-11-21T12:38:54;12.30;99.90
15765;DHT22;7983;50.744;7.086;2023-11-21T12:41:22;12.30;99.90
15765;DHT22;7983;50.744;7.086;2023-11-21T12:43:47;12.40;99.90
15765;DHT22;7983;50.744;7.086;2023-11-21T12:46:14;12.40;99.90
15765;DHT22;7983;50.744;7.086;2023-11-21T12:48:44;12.50;99.90
15765;DHT22;7983;50.744;7.086;2023-11-21T12:51:11;12.50;99.90
15765;DHT22;7983;50.744;7.086;2023-11-21T12:53:41;12.50;99.90
15765;DHT22;7983;50.744;7.086;2023-11-21T12:56:11;12.60;99.90
15765;DHT22;7983;50.744;7.086;2023-11-21T12:58:44;12.60;99.90
15765;DHT22;7983;50.744;7.086;2023-11-21T13:01:13;12.60;99.90
15765;DHT22;7983;50.744;7.086;2023-11-21T13:03:46;12.60;99.90
15765;DHT22;7983;50.744;7.086;2023-11-21T13:06:14;12.60;99.90
15765;DHT22;7983;50.744;7.086;2023-11-21T13:08:40;12.60;99.90
15765;DHT22;7983;50.744;7.086;2023-11-21T13:11:06;12.50;99.90
15765;DHT22;7983;50.744;7.086;2023-11-21T13:13:31;12.50;99.90
15765;DHT22;7983;50.744;7.086;2023-11-21T13:16:00;12.50;99.90
15765;DHT22;7983;50.744;7.086;2023-11-21T13:18:34;12.60;99.90
15765;DHT22;7983;50.744;7.086;2023-11-21T13:21:03;12.60;99.90
15765;DHT22;7983;50.744;7.086;2023-11-21T13:23:41;12.60;99.90
15765;DHT22;7983;50.744;7.086;2023-11-21T13:26:07;12.60;99.90
15765;DHT22;7983;50.744;7.086;2023-11-21T13:28:35;12.60;99.90
15765;DHT22;7983;50.744;7.086;2023-11-21T13:31:01;12.60;99.90
15765;DHT22;7983;50.744;7.086;2023-11-21T13:33:35;12.60;99.90
15765;DHT22;7983;50.744;7.086;2023-11-21T13:36:05;12.70;99.90
15765;DHT22;7983;50.744;7.086;2023-11-21T13:38:34;12.60;99.90
15765;DHT22;7983;50.744;7.086;2023-11-21T13:41:01;12.70;99.90
15765;DHT22;7983;50.744;7.086;2023-11-21T13:43:28;12.60;99.90
15765;DHT22;7983;50.744;7.086;2023-11-21T13:45:56;12.60;99.90
15765;DHT22;7983;50.744;7.086;2023-11-21T13:48:42;12.60;99.90
15765;DHT22;7983;50.744;7.086;2023-11-21T13:51:11;12.60;99.90
15765;DHT22;7983;50.744;7.086;2023-11-21T13:53:47;12.50;99.90
15765;DHT22;7983;50.744;7.086;2023-11-21T13:56:15;12.50;99.90
15765;DHT22;7983;50.744;7.086;2023-11-21T13:58:45;12.50;99.90
15765;DHT22;7983;50.744;7.086;2023-11-21T14:01:19;12.50;99.90
15765;DHT22;7983;50.744;7.086;2023-11-21T14:04:01;12.50;99.90
15765;DHT22;7983;50.744;7.086;2023-11-21T14:06:37;12.50;99.90
15765;DHT22;7983;50.744;7.086;2023-11-21T14:09:16;12.50;99.90
15765;DHT22;7983;50.744;7.086;2023-11-21T14:11:54;12.50;99.90
15765;DHT22;7983;50.744;7.086;2023-11-21T14:14:26;12.40;99.90
15765;DHT22;7983;50.744;7.086;2023-11-21T14:16:55;12.50;99.90
15765;DHT22;7983;50.744;7.086;2023-11-21T14:19:21;12.40;99.90
15765;DHT22;7983;50.744;7.086;2023-11-21T14:21:52;12.40;99.90
15765;DHT22;7983;50.744;7.086;2023-11-21T14:24:18;12.40;99.90
15765;DHT22;7983;50.744;7.086;2023-11-21T14:26:45;12.40;99.90
15765;DHT22;7983;50.744;7.086;2023-11-21T14:29:12;12.40;99.90
15765;DHT22;7983;50.744;7.086;2023-11-21T14:31:40;12.30;99.90
15765;DHT22;7983;50.744;7.086;2023-11-21T14:34:06;12.30;99.90
15765;DHT22;7983;50.744;7.086;2023-11-21T14:36:33;12.30;99.90
15765;DHT22;7983;50.744;7.086;2023-11-21T14:38:59;12.30;99.90
15765;DHT22;7983;50.744;7.086;2023-11-21T14:41:24;12.30;99.90
15765;DHT22;7983;50.744;7.086;2023-11-21T14:43:54;12.30;99.90
15765;DHT22;7983;50.744;7.086;2023-11-21T14:46:21;12.30;99.90
15765;DHT22;7983;50.744;7.086;2023-11-21T14:48:49;12.30;99.90
15765;DHT22;7983;50.744;7.086;2023-11-21T14:51:27;12.20;99.90
15765;DHT22;7983;50.744;7.086;2023-11-21T14:53:57;12.20;99.90
15765;DHT22;7983;50.744;7.086;2023-11-21T14:56:31;12.30;99.90
15765;DHT22;7983;50.744;7.086;2023-11-21T14:59:00;12.20;99.90
15765;DHT22;7983;50.744;7.086;2023-11-21T15:01:41;12.30;99.90
15765;DHT22;7983;50.744;7.086;2023-11-21T15:04:18;12.30;99.90
15765;DHT22;7983;50.744;7.086;2023-11-21T15:07:04;12.20;99.90
15765;DHT22;7983;50.744;7.086;2023-11-21T15:09:30;12.20;99.90
15765;DHT22;7983;50.744;7.086;2023-11-21T15:11:59;12.20;99.90
15765;DHT22;7983;50.744;7.086;2023-11-21T15:14:45;12.10;99.90
15765;DHT22;7983;50.744;7.086;2023-11-21T15:17:18;12.20;99.90
15765;DHT22;7983;50.744;7.086;2023-11-21T15:19:55;12.20;99.90
15765;DHT22;7983;50.744;7.086;2023-11-21T15:22:21;12.20;99.90
15765;DHT22;7983;50.744;7.086;2023-11-21T15:24:47;12.20;99.90
15765;DHT22;7983;50.744;7.086;2023-11-21T15:27:15;12.20;99.90
15765;DHT22;7983;50.744;7.086;2023-11-21T15:29:42;12.10;99.90
15765;DHT22;7983;50.744;7.086;2023-11-21T15:32:10;12.20;99.90
15765;DHT22;7983;50.744;7.086;2023-11-21T15:34:38;12.10;99.90
15765;DHT22;7983;50.744;7.086;2023-11-21T15:37:06;12.10;99.90
15765;DHT22;7983;50.744;7.086;2023-11-21T15:39:37;12.10;99.90
15765;DHT22;7983;50.744;7.086;2023-11-21T15:42:04;12.10;99.90
15765;DHT22;7983;50.744;7.086;2023-11-21T15:44:30;12.00;99.90
15765;DHT22;7983;50.744;7.086;2023-11-21T15:46:59;12.00;99.90
15765;DHT22;7983;50.744;7.086;2023-11-21T15:49:24;12.00;99.90
15765;DHT22;7983;50.744;7.086;2023-11-21T15:51:54;11.90;99.90
15765;DHT22;7983;50.744;7.086;2023-11-21T15:54:27;11.80;99.90
15765;DHT22;7983;50.744;7.086;2023-11-21T15:56:56;11.80;99.90
15765;DHT22;7983;50.744;7.086;2023-11-21T15:59:29;11.70;99.90
15765;DHT22;7983;50.744;7.086;2023-11-21T16:01:57;11.70;99.90
15765;DHT22;7983;50.744;7.086;2023-11-21T16:04:23;11.60;99.90
15765;DHT22;7983;50.744;7.086;2023-11-21T16:06:49;11.60;99.90
15765;DHT22;7983;50.744;7.086;2023-11-21T16:09:18;11.60;99.90
15765;DHT22;7983;50.744;7.086;2023-11-21T16:11:59;11.50;99.90
15765;DHT22;7983;50.744;7.086;2023-11-21T16:14:31;11.50;99.90
15765;DHT22;7983;50.744;7.086;2023-11-21T16:17:06;11.40;99.90
15765;DHT22;7983;50.744;7.086;2023-11-21T16:19:37;11.40;99.90
15765;DHT22;7983;50.744;7.086;2023-11-21T16:22:03;11.50;99.90
15765;DHT22;7983;50.744;7.086;2023-11-21T16:24:29;11.40;99.90
15765;DHT22;7983;50.744;7.086;2023-11-21T16:26:58;11.40;99.90